Time;durP1;ratioP1;P1;durP2;ratioP2;P2;SDS_P1;SDS_P2;PMS_P1;PMS_P2;Temp;Humidity;BMP_temperature;BMP_pressure;BME280_temperature;BME280_humidity;BME280_pressure;Samples;Min_cycle;Max_cycle;Signal;HPM_P1;HPM_P2
2024/04/10 00:00:50;;;;;;;;;;;;;;;16.79;47.48;100978.91;5456976;26;1290;-57
2024/04/10 00:03:16;;;;;;;;;;;;;;;16.63;46.93;100967.88;5457069;26;1123;-58
2024/04/10 00:06:00;;;;;;;;;;;;;;;16.55;46.29;100966.50;5457092;26;1312;-58
2024/04/10 00:08:26;;;;;;;;;;;;;;;16.31;46.11;100954.28;5456844;26;1402;-58
2024/04/10 00:10:51;;;;;;;;;;;;;;;17.75;46.98;100955.41;5456907;26;1183;-58
2024/04/10 00:13:17;;;;;;;;;;;;;;;16.83;48.09;100955.28;5456096;26;1856;-58
2024/04/10 00:15:42;;;;;;;;;;;;;;;16.68;47.14;100953.34;5456756;26;1300;-58
2024/04/10 00:18:08;;;;;;;;;;;;;;;17.82;47.02;100948.78;5456437;26;1357;-58
2024/04/10 00:20:33;;;;;;;;;;;;;;;16.96;48.13;100959.47;5456429;26;1143;-57
2024/04/10 00:22:59;;;;;;;;;;;;;;;16.67;47.48;100957.19;5455203;26;1175;-57
2024/04/10 00:25:24;;;;;;;;;;;;;;;16.61;46.59;100953.59;5456839;26;1349;-57
2024/04/10 00:27:50;;;;;;;;;;;;;;;17.36;47.20;100952.38;5456294;26;1471;-57
2024/04/10 00:30:15;;;;;;;;;;;;;;;17.10;48.02;100939.44;5456396;26;1266;-57
2024/04/10 00:32:41;;;;;;;;;;;;;;;16.72;47.60;100949.78;5456465;26;1279;-58
2024/04/10 00:35:06;;;;;;;;;;;;;;;16.65;46.83;100948.38;5455753;26;1825;-58
2024/04/10 00:37:32;;;;;;;;;;;;;;;16.49;46.31;100951.06;5456741;26;1194;-58
2024/04/10 00:39:57;;;;;;;;;;;;;;;16.48;46.38;100943.09;5456337;26;1174;-58
2024/04/10 00:42:23;;;;;;;;;;;;;;;17.83;46.86;100934.75;5455934;26;1207;-57
2024/04/10 00:44:52;;;;;;;;;;;;;;;16.86;47.99;100932.81;5456622;26;1164;-57
2024/04/10 00:47:18;;;;;;;;;;;;;;;16.68;47.73;100942.38;5455767;26;1167;-56
2024/04/10 00:49:44;;;;;;;;;;;;;;;17.84;47.45;100930.06;5455974;26;1198;-57
2024/04/10 00:52:09;;;;;;;;;;;;;;;17.05;48.03;100933.13;5456054;26;1334;-57
2024/04/10 00:54:35;;;;;;;;;;;;;;;16.77;47.27;100935.25;5438586;26;1829;-57
2024/04/10 00:57:00;;;;;;;;;;;;;;;17.24;47.52;100927.94;5455947;26;1116;-56
2024/04/10 00:59:26;;;;;;;;;;;;;;;17.22;47.94;100927.38;5455385;26;1361;-56
2024/04/10 01:01:52;;;;;;;;;;;;;;;16.74;47.60;100931.09;5456111;26;1250;-57
2024/04/10 01:04:17;;;;;;;;;;;;;;;17.35;47.72;100929.56;5455786;26;1320;-57
2024/04/10 01:06:43;;;;;;;;;;;;;;;17.07;48.09;100936.44;5455388;26;1183;-57
2024/04/10 01:09:08;;;;;;;;;;;;;;;16.76;47.63;100939.09;5455853;26;1162;-57
2024/04/10 01:11:34;;;;;;;;;;;;;;;16.64;46.87;100938.50;5455599;26;1261;-57
2024/04/10 01:13:59;;;;;;;;;;;;;;;17.51;47.32;100930.38;5440479;26;1828;-56
2024/04/10 01:16:25;;;;;;;;;;;;;;;16.88;47.54;100923.22;5456037;26;1373;-58
2024/04/10 01:18:50;;;;;;;;;;;;;;;16.57;47.19;100922.28;5456025;26;1333;-57
2024/04/10 01:21:16;;;;;;;;;;;;;;;16.45;46.51;100928.00;5455283;26;1294;-57
2024/04/10 01:23:41;;;;;;;;;;;;;;;17.40;47.22;100935.09;5455554;26;1179;-58
2024/04/10 01:26:07;;;;;;;;;;;;;;;17.14;47.84;100922.41;5455217;26;1128;-57
2024/04/10 01:28:32;;;;;;;;;;;;;;;16.69;47.67;100928.38;5455375;26;1352;-57
2024/04/10 01:30:58;;;;;;;;;;;;;;;16.55;46.83;100930.81;5455581;26;1219;-56
2024/04/10 01:33:24;;;;;;;;;;;;;;;17.33;47.10;100931.75;5457134;26;1871;-56
2024/04/10 01:35:49;;;;;;;;;;;;;;;17.04;47.62;100928.72;5458154;26;1337;-56
2024/04/10 01:38:15;;;;;;;;;;;;;;;16.66;47.41;100923.44;5459174;26;1254;-57
2024/04/10 01:40:40;;;;;;;;;;;;;;;16.67;46.78;100929.72;5458896;26;1212;-55
2024/04/10 01:43:06;;;;;;;;;;;;;;;17.17;47.44;100924.63;5459023;26;1296;-56
2024/04/10 01:45:31;;;;;;;;;;;;;;;16.68;47.52;100926.72;5458495;26;1202;-56
2024/04/10 01:47:57;;;;;;;;;;;;;;;16.56;46.63;100923.38;5458716;26;1325;-57
2024/04/10 01:50:22;;;;;;;;;;;;;;;17.36;47.34;100927.66;5458992;26;1222;-57
2024/04/10 01:52:48;;;;;;;;;;;;;;;16.71;47.57;100923.41;5458809;26;1250;-57
2024/04/10 01:55:13;;;;;;;;;;;;;;;16.52;46.95;100922.25;5458888;26;1872;-56
2024/04/10 01:57:39;;;;;;;;;;;;;;;16.49;46.26;100931.03;5458704;26;1119;-58
2024/04/10 02:00:05;;;;;;;;;;;;;;;17.29;46.79;100930.66;5458098;26;1229;-57
2024/04/10 02:02:36;;;;;;;;;;;;;;;17.15;47.58;100918.56;5458968;26;1206;-56
2024/04/10 02:05:01;;;;;;;;;;;;;;;16.64;47.42;100928.34;5458402;26;1289;-57
2024/04/10 02:07:27;;;;;;;;;;;;;;;16.55;46.61;100922.56;5458462;26;1171;-57
2024/04/10 02:09:52;;;;;;;;;;;;;;;16.48;45.89;100923.91;5448641;26;1493;-57
2024/04/10 02:12:18;;;;;;;;;;;;;;;17.40;46.79;100935.09;5457868;26;1055;-56
2024/04/10 02:14:43;;;;;;;;;;;;;;;16.71;47.48;100944.56;5458656;26;1829;-58
2024/04/10 02:17:09;;;;;;;;;;;;;;;16.53;46.92;100943.13;5458250;26;1146;-57
2024/04/10 02:19:34;;;;;;;;;;;;;;;16.29;46.53;100943.59;5458348;26;1416;-58
2024/04/10 02:22:00;;;;;;;;;;;;;;;17.49;46.87;100949.09;5458814;26;1277;-57
2024/04/10 02:24:25;;;;;;;;;;;;;;;16.81;47.60;100954.75;5457936;26;1309;-57
2024/04/10 02:26:51;;;;;;;;;;;;;;;16.60;46.87;100946.44;5458028;26;1128;-57
2024/04/10 02:29:17;;;;;;;;;;;;;;;17.73;46.74;100954.03;5458692;26;1190;-57
2024/04/10 02:31:42;;;;;;;;;;;;;;;16.83;47.77;100956.16;5459020;26;1123;-57
2024/04/10 02:34:08;;;;;;;;;;;;;;;16.60;47.16;100958.25;5457879;26;2139;-57
2024/04/10 02:36:34;;;;;;;;;;;;;;;17.58;47.32;100952.91;5457834;26;1071;-57
2024/04/10 02:38:59;;;;;;;;;;;;;;;16.88;47.78;100964.41;5458572;26;1179;-58
2024/04/10 02:41:25;;;;;;;;;;;;;;;16.70;46.99;100962.94;5458256;26;1277;-57
2024/04/10 02:43:50;;;;;;;;;;;;;;;16.48;46.60;100965.06;5458075;26;1347;-58
2024/04/10 02:46:16;;;;;;;;;;;;;;;17.64;47.05;100964.75;5457920;26;1179;-58
2024/04/10 02:48:42;;;;;;;;;;;;;;;16.84;47.66;100970.69;5457333;26;1274;-58
2024/04/10 02:51:08;;;;;;;;;;;;;;;16.63;47.13;100973.38;5458169;26;1273;-56
2024/04/10 02:53:33;;;;;;;;;;;;;;;16.49;46.34;100966.72;5457713;26;1851;-57
2024/04/10 02:55:59;;;;;;;;;;;;;;;17.32;47.11;100967.78;5457863;26;1317;-58
2024/04/10 02:58:24;;;;;;;;;;;;;;;16.73;47.35;100973.41;5458065;26;1199;-57
2024/04/10 03:00:50;;;;;;;;;;;;;;;16.65;46.63;100973.09;5457590;26;1060;-57
2024/04/10 03:03:16;;;;;;;;;;;;;;;16.42;46.16;100970.56;5458072;26;1322;-57
2024/04/10 03:05:42;;;;;;;;;;;;;;;17.16;46.71;100970.50;5458320;26;1495;-56
2024/04/10 03:08:08;;;;;;;;;;;;;;;16.72;47.31;100966.25;5457783;26;1297;-57
2024/04/10 03:10:34;;;;;;;;;;;;;;;16.49;46.92;100966.72;5457785;26;1186;-57
2024/04/10 03:12:59;;;;;;;;;;;;;;;16.32;46.42;100970.50;5457616;26;1830;-57
2024/04/10 03:15:25;;;;;;;;;;;;;;;17.49;46.36;100973.00;5453496;26;1567;-58
2024/04/10 03:17:51;;;;;;;;;;;;;;;16.66;47.34;100978.34;5467790;26;1203;-59
2024/04/10 03:20:17;;;;;;;;;;;;;;;16.58;46.99;100976.09;5457522;26;1336;-59
2024/04/10 03:22:42;;;;;;;;;;;;;;;16.88;47.61;100975.41;5458063;26;1182;-54
2024/04/10 03:25:08;;;;;;;;;;;;;;;16.46;47.43;100967.28;5457158;26;1282;-55
2024/04/10 03:27:33;;;;;;;;;;;;;;;17.50;46.94;100975.50;5457609;26;1194;-55
2024/04/10 03:29:59;;;;;;;;;;;;;;;16.86;47.70;100974.00;5453647;26;1534;-55
2024/04/10 03:32:27;;;;;;;;;;;;;;;16.60;47.31;100990.38;5458088;26;1319;-56
2024/04/10 03:34:53;;;;;;;;;;;;;;;16.46;46.64;100983.75;5456322;26;1820;-53
2024/04/10 03:37:18;;;;;;;;;;;;;;;17.97;46.31;100984.56;5461492;26;1179;-56
2024/04/10 03:39:44;;;;;;;;;;;;;;;16.85;48.02;100992.38;5457322;26;1273;-55
2024/04/10 03:42:10;;;;;;;;;;;;;;;16.64;47.16;100986.00;5456847;26;1124;-55
2024/04/10 03:44:36;;;;;;;;;;;;;;;16.91;47.47;101001.50;5457430;26;1213;-53
2024/04/10 03:47:04;;;;;;;;;;;;;;;17.72;47.13;101007.38;5456898;26;1164;-56
2024/04/10 03:49:30;;;;;;;;;;;;;;;17.43;48.43;101008.75;5455768;26;2789;-55
2024/04/10 03:51:55;;;;;;;;;;;;;;;18.87;46.32;101001.31;5456576;26;1123;-54
2024/04/10 03:54:21;;;;;;;;;;;;;;;15.11;54.72;101002.97;5456444;26;1875;-52
2024/04/10 03:56:46;;;;;;;;;;;;;;;18.03;49.25;101005.44;5454872;26;1183;-56
2024/04/10 03:59:12;;;;;;;;;;;;;;;18.00;49.32;101021.69;5456309;26;1273;-56
2024/04/10 04:01:41;;;;;;;;;;;;;;;15.70;56.08;101027.66;5455931;26;1306;-57
2024/04/10 04:04:06;;;;;;;;;;;;;;;18.58;49.17;101021.25;5456574;26;1342;-57
2024/04/10 04:06:32;;;;;;;;;;;;;;;17.94;49.76;101029.94;5442549;26;1791;-59
2024/04/10 04:08:58;;;;;;;;;;;;;;;17.60;50.84;101026.91;5456547;26;1203;-57
2024/04/10 04:11:23;;;;;;;;;;;;;;;17.39;51.21;101029.63;5455521;26;1151;-59
2024/04/10 04:13:49;;;;;;;;;;;;;;;17.19;51.38;101032.34;5452471;26;1822;-57
2024/04/10 04:17:46;;;;;;;;;;;;;;;16.89;51.92;101040.22;5459277;25;1372471;-57
2024/04/10 04:20:12;;;;;;;;;;;;;;;16.73;52.03;101049.47;5496985;26;2788;-57
2024/04/10 04:22:38;;;;;;;;;;;;;;;16.55;52.24;101037.00;5511531;26;1229;-58
2024/04/10 04:25:04;;;;;;;;;;;;;;;16.39;52.31;101045.16;5511606;25;1159;-57
2024/04/10 04:27:32;;;;;;;;;;;;;;;16.33;52.42;101038.00;5511561;25;1167;-57
2024/04/10 04:29:58;;;;;;;;;;;;;;;16.20;52.54;101042.06;5511626;25;1230;-58
2024/04/10 04:32:24;;;;;;;;;;;;;;;16.13;52.67;101046.09;5511074;26;1127;-57
2024/04/10 04:34:49;;;;;;;;;;;;;;;16.08;52.58;101042.22;5511351;26;1203;-56
2024/04/10 04:37:15;;;;;;;;;;;;;;;15.96;52.72;101041.59;5510905;26;1839;-57
2024/04/10 04:39:41;;;;;;;;;;;;;;;16.30;52.38;101030.31;5510743;26;1359;-57
2024/04/10 04:42:06;;;;;;;;;;;;;;;17.72;49.37;101032.94;5511126;26;1313;-57
2024/04/10 04:44:32;;;;;;;;;;;;;;;16.90;51.25;101032.78;5510872;25;1123;-58
2024/04/10 04:46:59;;;;;;;;;;;;;;;16.52;52.11;101043.91;5510735;26;1119;-57
2024/04/10 04:49:25;;;;;;;;;;;;;;;16.21;52.72;101045.63;5510590;25;2789;-58
2024/04/10 04:51:50;;;;;;;;;;;;;;;16.10;52.84;101046.63;5511007;26;1205;-58
2024/04/10 04:54:16;;;;;;;;;;;;;;;15.99;53.00;101056.69;5510810;26;1506;-57
2024/04/10 04:56:41;;;;;;;;;;;;;;;16.49;52.21;101049.06;5511134;25;1829;-57
2024/04/10 04:59:07;;;;;;;;;;;;;;;17.65;49.19;101059.91;5488433;25;1732;-55
2024/04/10 05:01:32;;;;;;;;;;;;;;;16.69;51.71;101053.84;5510105;26;1234;-59
2024/04/10 05:06:42;;;;;;;;;;;;;;;16.13;52.76;101046.09;5510546;26;1586;-57
2024/04/10 05:09:09;;;;;;;;;;;;;;;15.96;53.17;101054.50;5510589;26;1219;-61
2024/04/10 05:11:38;;;;;;;;;;;;;;;16.23;52.73;101059.91;5510487;25;1123;-59
2024/04/10 05:14:04;;;;;;;;;;;;;;;17.63;49.22;101062.13;5510103;26;1181;-58
2024/04/10 05:16:29;;;;;;;;;;;;;;;16.74;51.36;101057.44;5508153;26;1822;-57
2024/04/10 05:18:55;;;;;;;;;;;;;;;16.38;52.31;101065.50;5509658;25;2702;-57
2024/04/10 05:21:20;;;;;;;;;;;;;;;16.13;52.75;101062.56;5488072;25;1264;-58
2024/04/10 05:23:47;;;;;;;;;;;;;;;15.98;53.05;101064.13;5510381;26;1144;-58
2024/04/10 05:26:12;;;;;;;;;;;;;;;16.76;51.51;101058.00;5510338;26;1012;-58
2024/04/10 05:28:38;;;;;;;;;;;;;;;17.80;48.63;101064.59;5496650;26;1169;-57
2024/04/10 05:31:03;;;;;;;;;;;;;;;16.90;50.86;101071.25;5494289;26;1133;-58
2024/04/10 05:33:29;;;;;;;;;;;;;;;16.46;51.94;101077.06;5494013;26;1082;-60
2024/04/10 05:36:12;;;;;;;;;;;;;;;16.21;52.55;101071.13;5494628;26;1821;-59
2024/04/10 05:38:38;;;;;;;;;;;;;;;16.13;52.68;101062.56;5493750;26;1525;-59
2024/04/10 05:41:03;;;;;;;;;;;;;;;16.90;51.29;101065.75;5494639;26;1254;-61
2024/04/10 05:43:29;;;;;;;;;;;;;;;17.53;49.28;101062.06;5493297;26;1359;-61
2024/04/10 05:45:55;;;;;;;;;;;;;;;16.63;51.68;101069.47;5493293;26;1495;-60
2024/04/10 05:48:20;;;;;;;;;;;;;;;16.38;52.22;101062.75;5489667;26;1695;-59
2024/04/10 05:50:46;;;;;;;;;;;;;;;16.19;52.60;101067.00;5471461;26;2544;-59
2024/04/10 05:53:11;;;;;;;;;;;;;;;16.16;52.63;101067.53;5483258;26;1535;-58
2024/04/10 05:55:37;;;;;;;;;;;;;;;15.99;53.04;101068.53;5484793;26;1869;-58
2024/04/10 05:58:03;;;;;;;;;;;;;;;16.64;51.86;101062.88;5494353;26;1178;-57
2024/04/10 06:00:28;;;;;;;;;;;;;;;17.72;48.80;101060.44;5492631;26;1392;-58
2024/04/10 06:02:54;;;;;;;;;;;;;;;16.80;51.09;101063.75;5471598;26;1487;-57
2024/04/10 06:05:19;;;;;;;;;;;;;;;16.42;52.17;101066.63;5487169;26;1115;-53
2024/04/10 06:07:45;;;;;;;;;;;;;;;16.25;52.35;101057.72;5494301;26;1173;-48
2024/04/10 06:10:11;;;;;;;;;;;;;;;16.10;52.73;101069.41;5493969;26;1230;-48
2024/04/10 06:12:36;;;;;;;;;;;;;;;16.00;53.00;101064.66;5494189;26;1289;-50
2024/04/10 06:15:02;;;;;;;;;;;;;;;17.30;50.09;101064.25;5493346;26;1056;-50
2024/04/10 06:17:27;;;;;;;;;;;;;;;17.35;49.64;101055.16;5494049;26;1876;-52
2024/04/10 06:19:56;;;;;;;;;;;;;;;16.73;51.39;101064.03;5493741;26;2712;-51
2024/04/10 06:22:21;;;;;;;;;;;;;;;16.42;52.08;101060.28;5493675;26;1221;-50
2024/04/10 06:24:47;;;;;;;;;;;;;;;16.22;52.60;101056.31;5492974;26;1164;-51
2024/04/10 06:27:13;;;;;;;;;;;;;;;16.20;52.82;101060.41;5493548;26;960;-51
2024/04/10 06:29:42;;;;;;;;;;;;;;;17.72;49.07;101056.88;5481634;26;1383;-52
2024/04/10 06:32:07;;;;;;;;;;;;;;;17.04;50.51;101058.69;5493361;26;1140;-50
2024/04/10 06:34:33;;;;;;;;;;;;;;;16.66;51.58;101062.63;5488205;26;1511;-51
2024/04/10 06:36:58;;;;;;;;;;;;;;;16.40;52.24;101057.00;5480826;26;1872;-54
2024/04/10 06:39:24;;;;;;;;;;;;;;;16.23;52.44;101052.50;5492972;26;1415;-47
2024/04/10 06:41:49;;;;;;;;;;;;;;;16.10;52.74;101052.94;5489073;26;1139;-47
2024/04/10 06:44:15;;;;;;;;;;;;;;;16.67;51.86;101047.78;5489882;26;1495;-49
2024/04/10 06:46:40;;;;;;;;;;;;;;;17.55;49.28;101055.22;5493090;26;1278;-50
2024/04/10 06:49:09;;;;;;;;;;;;;;;16.74;51.40;101059.34;5481295;26;2825;-50
2024/04/10 06:51:35;;;;;;;;;;;;;;;16.50;52.06;101061.72;5493902;26;1293;-51
2024/04/10 06:54:01;;;;;;;;;;;;;;;16.32;52.50;101054.75;5489420;26;1588;-51
2024/04/10 06:56:27;;;;;;;;;;;;;;;16.12;52.96;101045.28;5480866;26;1828;-49
2024/04/10 06:58:54;;;;;;;;;;;;;;;15.97;53.27;101048.75;5484830;26;1160;-49
2024/04/10 07:01:20;;;;;;;;;;;;;;;17.32;50.29;101053.81;5492960;26;1319;-53
2024/04/10 07:03:45;;;;;;;;;;;;;;;17.35;49.77;101050.53;5492972;26;1253;-51
2024/04/10 07:06:12;;;;;;;;;;;;;;;16.71;51.53;101051.66;5491994;26;1568;-49
2024/04/10 07:08:38;;;;;;;;;;;;;;;16.41;52.40;101051.22;5493010;26;1062;-49
2024/04/10 07:11:14;;;;;;;;;;;;;;;16.22;52.73;101047.28;5489016;26;1237;-49
2024/04/10 07:13:41;;;;;;;;;;;;;;;16.17;52.79;101042.59;5488167;26;1608;-48
2024/04/10 07:16:07;;;;;;;;;;;;;;;16.42;52.45;101043.81;5462689;26;1814;-51
2024/04/10 07:18:33;;;;;;;;;;;;;;;17.71;49.17;101031.31;5485457;26;1762;-53
2024/04/10 07:20:58;;;;;;;;;;;;;;;16.81;51.39;101035.22;5503332;26;2874;-54
2024/04/10 07:23:24;;;;;;;;;;;;;;;16.49;52.18;101029.84;5493773;26;1266;-49
2024/04/10 07:25:49;;;;;;;;;;;;;;;16.26;52.72;101020.97;5486863;26;1312;-52
2024/04/10 07:28:15;;;;;;;;;;;;;;;16.21;52.67;101026.41;5478427;26;1583;-55
2024/04/10 07:30:41;;;;;;;;;;;;;;;16.05;53.07;101029.06;5479498;26;1202;-50
2024/04/10 07:33:06;;;;;;;;;;;;;;;16.13;53.19;101013.19;5461682;26;1210;-51
2024/04/10 07:35:32;;;;;;;;;;;;;;;17.66;49.25;101023.06;5493067;26;1832;-51
2024/04/10 07:37:57;;;;;;;;;;;;;;;17.23;50.14;101019.72;5492447;26;1167;-49
2024/04/10 07:40:23;;;;;;;;;;;;;;;16.72;51.53;101023.94;5494471;26;1390;-52
2024/04/10 07:42:48;;;;;;;;;;;;;;;16.50;52.05;101020.53;5493391;26;1255;-49
2024/04/10 07:45:14;;;;;;;;;;;;;;;16.34;52.59;101019.63;5492976;26;1264;-52
2024/04/10 07:47:41;;;;;;;;;;;;;;;16.12;53.25;101017.00;5492900;26;1196;-50
2024/04/10 07:50:07;;;;;;;;;;;;;;;16.08;53.37;101008.50;5468111;26;1269;-50
2024/04/10 07:52:32;;;;;;;;;;;;;;;15.95;53.54;101009.78;5481607;26;1714;-51
2024/04/10 07:54:58;;;;;;;;;;;;;;;17.38;50.28;101006.00;5485017;26;2871;-51
2024/04/10 07:57:23;;;;;;;;;;;;;;;17.33;49.99;101013.41;5492386;26;2305;-52
2024/04/10 07:59:49;;;;;;;;;;;;;;;16.79;51.64;101017.34;5492178;26;2297;-50
2024/04/10 08:02:14;;;;;;;;;;;;;;;16.39;52.65;101017.72;5486587;26;2190;-50
2024/04/10 08:04:40;;;;;;;;;;;;;;;16.30;52.74;101019.34;5491687;26;2281;-50
2024/04/10 08:07:05;;;;;;;;;;;;;;;16.14;53.32;101014.84;5491468;26;2079;-50
2024/04/10 08:09:31;;;;;;;;;;;;;;;16.07;53.28;101015.91;5486723;26;1750;-49
2024/04/10 08:11:56;;;;;;;;;;;;;;;16.60;52.31;101010.41;5492528;26;1328;-48
2024/04/10 08:14:22;;;;;;;;;;;;;;;17.81;49.00;101005.72;5491558;26;1380;-50
2024/04/10 08:16:47;;;;;;;;;;;;;;;16.94;51.14;101009.19;5489925;26;1820;-50
2024/04/10 08:19:13;;;;;;;;;;;;;;;16.53;52.30;101014.50;5491861;26;1275;-49
2024/04/10 08:21:39;;;;;;;;;;;;;;;16.38;52.69;101009.75;5487125;26;1735;-53
2024/04/10 08:24:05;;;;;;;;;;;;;;;16.26;52.93;101004.50;5468786;26;1341;-50
2024/04/10 08:26:32;;;;;;;;;;;;;;;16.10;53.28;100991.78;5491349;26;1334;-52
2024/04/10 08:28:57;;;;;;;;;;;;;;;16.07;53.56;100993.97;5486016;26;1790;-53
2024/04/10 08:31:23;;;;;;;;;;;;;;;17.53;49.77;100996.94;5491568;26;1240;-51
2024/04/10 08:33:50;;;;;;;;;;;;;;;17.20;50.39;100999.09;5490515;26;1502;-53
2024/04/10 08:36:16;;;;;;;;;;;;;;;16.69;51.95;100997.00;5491412;26;2668;-50
2024/04/10 08:38:42;;;;;;;;;;;;;;;16.40;52.53;100991.94;5490631;26;1307;-53
2024/04/10 08:41:17;;;;;;;;;;;;;;;16.28;52.99;100988.56;5460576;26;1290;-53
2024/04/10 08:43:44;;;;;;;;;;;;;;;16.11;53.33;100993.44;5489987;26;1365;-52
2024/04/10 08:46:09;;;;;;;;;;;;;;;16.10;53.16;100992.59;5492276;26;1266;-52
2024/04/10 08:48:35;;;;;;;;;;;;;;;17.26;50.61;100998.03;5487524;26;1658;-55
2024/04/10 08:51:02;;;;;;;;;;;;;;;17.49;49.72;100995.00;5491262;26;1153;-53
2024/04/10 08:53:27;;;;;;;;;;;;;;;16.82;51.48;100998.44;5492128;26;1219;-51
2024/04/10 08:55:53;;;;;;;;;;;;;;;16.57;52.12;100999.16;5450475;26;1828;-54
2024/04/10 08:58:18;;;;;;;;;;;;;;;16.42;52.53;101000.75;5491532;26;1107;-53
2024/04/10 09:00:44;;;;;;;;;;;;;;;16.31;52.90;100999.00;5458965;26;1304;-52
2024/04/10 09:03:10;;;;;;;;;;;;;;;16.24;52.86;100987.47;5491022;26;1303;-54
2024/04/10 09:05:36;;;;;;;;;;;;;;;16.04;53.38;100999.97;5491631;26;1459;-52
2024/04/10 09:08:02;;;;;;;;;;;;;;;17.09;51.11;100991.94;5482487;26;1208;-52
2024/04/10 09:10:28;;;;;;;;;;;;;;;17.41;49.94;100993.63;5494167;26;1373;-53
2024/04/10 09:13:03;;;;;;;;;;;;;;;16.69;51.77;101002.50;5494303;26;1321;-54
2024/04/10 09:15:29;;;;;;;;;;;;;;;16.42;52.45;100999.91;5486048;26;1862;-50
2024/04/10 09:17:54;;;;;;;;;;;;;;;16.32;52.72;101006.16;5492103;26;1600;-53
2024/04/10 09:20:20;;;;;;;;;;;;;;;16.30;52.79;101019.34;5483595;26;1508;-54
2024/04/10 09:22:56;;;;;;;;;;;;;;;16.10;53.23;101017.28;5494133;26;1287;-53
2024/04/10 09:25:22;;;;;;;;;;;;;;;15.98;53.43;101017.50;5495336;26;1170;-50
2024/04/10 09:27:47;;;;;;;;;;;;;;;16.49;52.66;101030.69;5494651;26;1276;-54
2024/04/10 09:30:13;;;;;;;;;;;;;;;17.83;49.10;101025.53;5462216;26;1498;-54
2024/04/10 09:32:38;;;;;;;;;;;;;;;17.21;50.41;101021.91;5495283;26;1271;-53
2024/04/10 09:35:05;;;;;;;;;;;;;;;16.67;51.93;101023.91;5494571;26;1287;-54
2024/04/10 09:37:31;;;;;;;;;;;;;;;16.53;52.32;101023.56;5494185;26;1821;-54
2024/04/10 09:39:56;;;;;;;;;;;;;;;16.36;52.75;101021.00;5461452;26;1517;-51
2024/04/10 09:42:25;;;;;;;;;;;;;;;16.25;52.88;101017.38;5494228;26;1206;-52
2024/04/10 09:44:51;;;;;;;;;;;;;;;16.13;53.38;101021.41;5461266;26;1545;-52
2024/04/10 09:47:16;;;;;;;;;;;;;;;17.56;49.80;101021.13;5456340;26;1641;-52
2024/04/10 09:49:42;;;;;;;;;;;;;;;17.33;50.21;101025.22;5432039;26;1236;-51
2024/04/10 09:52:08;;;;;;;;;;;;;;;16.72;51.82;101023.94;5490886;26;1591;-54
2024/04/10 09:54:34;;;;;;;;;;;;;;;16.45;52.60;101026.00;5492319;26;2580;-53
2024/04/10 09:56:59;;;;;;;;;;;;;;;16.41;52.66;101033.91;5493779;26;1907;-52
2024/04/10 09:59:25;;;;;;;;;;;;;;;16.25;53.10;101016.56;5487806;26;1722;-52
2024/04/10 10:01:54;;;;;;;;;;;;;;;16.21;53.23;101027.22;5485966;26;1190;-50
2024/04/10 10:04:20;;;;;;;;;;;;;;;17.78;49.32;101026.34;5486335;26;1100;-49
2024/04/10 10:06:46;;;;;;;;;;;;;;;17.06;50.97;101025.44;5490825;26;1218;-50
2024/04/10 10:09:11;;;;;;;;;;;;;;;16.66;52.30;101035.16;5487743;26;1749;-51
2024/04/10 10:11:37;;;;;;;;;;;;;;;16.42;52.60;101033.69;5457780;26;1249;-50
2024/04/10 10:14:03;;;;;;;;;;;;;;;16.35;52.76;101030.31;5493285;26;1278;-50
2024/04/10 10:16:28;;;;;;;;;;;;;;;16.15;53.33;101032.97;5493127;26;1829;-52
2024/04/10 10:18:55;;;;;;;;;;;;;;;16.09;53.33;101034.84;5493994;26;1229;-52
2024/04/10 10:21:21;;;;;;;;;;;;;;;15.98;53.58;101033.94;5493499;26;1174;-52
2024/04/10 10:23:54;;;;;;;;;;;;;;;17.22;50.97;101045.53;5493779;26;2916;-52
2024/04/10 10:26:20;;;;;;;;;;;;;;;17.34;50.42;101040.63;5461899;26;1337;-52
2024/04/10 10:28:45;;;;;;;;;;;;;;;16.68;52.14;101033.78;5460379;26;1436;-51
2024/04/10 10:31:19;;;;;;;;;;;;;;;16.51;52.62;101047.72;5493194;26;1022;-51
2024/04/10 10:33:45;;;;;;;;;;;;;;;16.26;53.08;101031.94;5493332;26;1250;-53
2024/04/10 10:36:13;;;;;;;;;;;;;;;16.19;53.26;101034.09;5480185;26;1825;-53
2024/04/10 10:38:39;;;;;;;;;;;;;;;16.68;52.56;101046.72;5486212;26;1163;-53
2024/04/10 10:41:08;;;;;;;;;;;;;;;17.69;49.62;101047.25;5492886;26;1364;-51
2024/04/10 10:43:33;;;;;;;;;;;;;;;16.91;51.65;101038.06;5491643;26;1315;-52
2024/04/10 10:45:59;;;;;;;;;;;;;;;16.52;52.63;101035.66;5493687;26;1107;-50
2024/04/10 10:48:26;;;;;;;;;;;;;;;16.37;53.31;101032.84;5483208;26;1275;-53
2024/04/10 10:50:56;;;;;;;;;;;;;;;16.23;53.51;101032.47;5493187;26;1254;-50
2024/04/10 10:53:22;;;;;;;;;;;;;;;16.10;53.74;101041.16;5484781;26;2696;-51
2024/04/10 10:55:54;;;;;;;;;;;;;;;16.95;52.01;101043.81;5491118;26;1825;-50
2024/04/10 10:58:21;;;;;;;;;;;;;;;17.45;50.52;101042.28;5492978;26;1158;-50
2024/04/10 11:00:46;;;;;;;;;;;;;;;16.79;52.28;101050.31;5493556;26;1155;-50
2024/04/10 11:03:12;;;;;;;;;;;;;;;16.47;53.12;101051.28;5461116;26;1251;-50
2024/04/10 11:05:38;;;;;;;;;;;;;;;16.30;53.42;101046.78;5461546;26;1374;-52
2024/04/10 11:08:04;;;;;;;;;;;;;;;16.13;54.03;101046.09;5493312;26;1131;-49
2024/04/10 11:10:29;;;;;;;;;;;;;;;16.06;54.02;101047.16;5493261;26;1119;-46
2024/04/10 11:13:01;;;;;;;;;;;;;;;17.27;51.70;101062.03;5492980;26;1162;-53
2024/04/10 11:15:27;;;;;;;;;;;;;;;17.32;51.17;101059.31;5492672;26;1825;-50
2024/04/10 11:18:02;;;;;;;;;;;;;;;16.69;52.83;101046.44;5493270;26;1169;-51
2024/04/10 11:20:28;;;;;;;;;;;;;;;16.40;53.62;101043.28;5493259;26;1154;-51
2024/04/10 11:23:00;;;;;;;;;;;;;;;16.24;54.09;101053.31;5493633;26;1221;-50
2024/04/10 11:25:26;;;;;;;;;;;;;;;16.17;54.15;101053.56;5492605;26;2915;-45
2024/04/10 11:27:51;;;;;;;;;;;;;;;17.45;51.24;101056.03;5491914;26;1290;-48
2024/04/10 11:30:17;;;;;;;;;;;;;;;17.30;51.55;101053.25;5493385;26;1165;-51
2024/04/10 11:32:42;;;;;;;;;;;;;;;16.83;52.81;101043.19;5489240;26;1686;-48
2024/04/10 11:35:13;;;;;;;;;;;;;;;16.51;53.62;101044.13;5490239;26;1323;-50
2024/04/10 11:37:39;;;;;;;;;;;;;;;16.42;53.79;101055.63;5483522;26;1898;-48
2024/04/10 11:40:11;;;;;;;;;;;;;;;16.21;54.37;101048.34;5492090;26;1397;-49
2024/04/10 11:42:40;;;;;;;;;;;;;;;16.78;53.53;101052.25;5470782;26;1170;-46
2024/04/10 11:45:07;;;;;;;;;;;;;;;17.60;51.25;101041.47;5492525;26;1162;-47
2024/04/10 11:47:33;;;;;;;;;;;;;;;16.90;52.94;101041.03;5492796;26;1187;-48
2024/04/10 11:49:58;;;;;;;;;;;;;;;16.55;53.79;101043.34;5492114;26;1199;-53
2024/04/10 11:52:24;;;;;;;;;;;;;;;16.36;54.24;101042.97;5492306;26;1220;-47
2024/04/10 11:54:49;;;;;;;;;;;;;;;16.26;54.42;101045.66;5491376;26;2539;-50
2024/04/10 11:57:15;;;;;;;;;;;;;;;16.14;54.54;101045.03;5485913;26;1854;-49
2024/04/10 11:59:40;;;;;;;;;;;;;;;16.82;53.64;101052.53;5492543;26;1236;-47
2024/04/10 12:02:06;;;;;;;;;;;;;;;17.65;51.32;101048.91;5492272;26;1293;-48
2024/04/10 12:04:32;;;;;;;;;;;;;;;16.84;53.37;101050.34;5491830;26;1186;-50
2024/04/10 12:06:58;;;;;;;;;;;;;;;16.57;54.06;101051.31;5492372;26;1183;-50
2024/04/10 12:09:25;;;;;;;;;;;;;;;16.43;54.48;101051.78;5492268;26;1139;-51
2024/04/10 12:11:51;;;;;;;;;;;;;;;16.24;54.61;101045.06;5490189;26;1249;-47
2024/04/10 12:14:16;;;;;;;;;;;;;;;16.20;54.58;101046.69;5479409;26;1250;-51
2024/04/10 12:16:42;;;;;;;;;;;;;;;16.54;54.55;101046.38;5491977;26;1866;-49
2024/04/10 12:19:07;;;;;;;;;;;;;;;17.68;51.58;101048.34;5480063;26;1706;-47
2024/04/10 12:21:33;;;;;;;;;;;;;;;16.84;53.59;101040.16;5489433;26;1732;-46
2024/04/10 12:23:58;;;;;;;;;;;;;;;16.54;54.52;101046.38;5486603;26;2673;-48
2024/04/10 12:26:24;;;;;;;;;;;;;;;16.37;54.63;101039.13;5486749;26;1128;-49
2024/04/10 12:28:49;;;;;;;;;;;;;;;16.22;54.80;101044.53;5491410;26;1218;-47
2024/04/10 12:31:15;;;;;;;;;;;;;;;16.14;54.79;101034.88;5492471;26;1199;-51
2024/04/10 12:33:41;;;;;;;;;;;;;;;16.17;55.29;101039.84;5491870;26;1214;-49
2024/04/10 12:38:51;;;;;;;;;;;;;;;17.01;53.32;101041.91;5472619;26;1481;-52
2024/04/10 12:41:17;;;;;;;;;;;;;;;16.58;54.58;101033.75;5480188;26;1895;-52
2024/04/10 12:43:44;;;;;;;;;;;;;;;16.40;54.81;101043.28;5476573;26;1803;-47
2024/04/10 12:46:10;;;;;;;;;;;;;;;16.21;55.16;101031.91;5483136;26;1840;-49
2024/04/10 12:48:35;;;;;;;;;;;;;;;16.10;55.13;101022.75;5478462;26;1773;-50